Star Phenix — JG5422 — position and weather

sailwx.info

Track history (hours):
 
Tides and Currents Weather Stations Pressure Air Temp Water Temp Dewpoint Dewpoint Depression Visibility Wind Speed Wind Dir Waves Ship Positions

Star Phenix

Last reported at 2018-Jan-21 16:12 UTC. Time now 2018-Jan-23 19:41 UTC.
Position N 34°60' E 140°12'.

Length 96 m; draft 5.6 m.

Type: Tanker. MMSI: 431100206.

Date/timePositionNaut miles runAvg speedWind from/ knotsBaromVisibWave heightAir tempDewpointWater temp
2018-Jan-21 16:12N 34°60' E 140°12'313.4
2018-Jan-21 15:57N 34°58' E 140°09'613.1
2018-Jan-21 15:30N 34°55' E 140°02'1212.1
2018-Jan-21 14:32N 34°52' E 139°49'113.0
2018-Jan-21 14:29N 34°53' E 139°48'714.4
2018-Jan-21 14:00N 34°58' E 139°43'714.0
2018-Jan-21 13:30N 35°05' E 139°44'714.4
2018-Jan-21 13:01N 35°12' E 139°46'612.3
2018-Jan-21 12:31N 35°18' E 139°44'713.1
2018-Jan-21 12:00N 35°25' E 139°43'714.2
2018-Jan-21 11:30N 35°29' E 139°50'713.7
2018-Jan-21 11:00N 35°32' E 139°58'4 1.2
2018-Jan-21 07:23N 35°32' E 140°03'0 0.0
2018-Jan-21 06:53N 35°32' E 140°03'0 0.0
2018-Jan-21 04:05N 35°32' E 140°03'0 0.0
2018-Jan-21 03:59N 35°32' E 140°03'0 0.7
2018-Jan-21 03:31N 35°32' E 140°03'3 5.3
2018-Jan-21 03:01N 35°33' E 140°00'5 2.3
2018-Jan-21 00:46N 35°35' E 139°54'0 0.0
2018-Jan-21 00:22N 35°35' E 139°54'0 0.0
2018-Jan-20 23:43N 35°35' E 139°54'0 0.0
2018-Jan-20 22:28N 35°35' E 139°54'0 0.0
2018-Jan-20 21:49N 35°35' E 139°54'0 0.0
2018-Jan-20 20:13N 35°35' E 139°54'0 0.0
2018-Jan-20 19:19N 35°35' E 139°54'0 0.0
2018-Jan-20 17:13N 35°35' E 139°54'0 0.0
2018-Jan-20 16:52N 35°35' E 139°54'0 0.0
2018-Jan-20 16:28N 35°35' E 139°54'0 0.0
2018-Jan-20 15:58N 35°35' E 139°54'0 0.0
2018-Jan-20 15:28N 35°35' E 139°54'0 0.0
2018-Jan-20 14:52N 35°35' E 139°54'0 0.0
2018-Jan-20 14:28N 35°35' E 139°54'0 0.1
2018-Jan-20 13:46N 35°35' E 139°54'0 0.2
2018-Jan-20 13:28N 35°35' E 139°54'0 0.0
2018-Jan-20 12:04N 35°35' E 139°54'0 0.0
2018-Jan-20 11:58N 35°35' E 139°54'0 0.0
2018-Jan-20 11:28N 35°35' E 139°54'0 0.0
2018-Jan-20 10:52N 35°35' E 139°54'0 0.0
2018-Jan-20 10:28N 35°35' E 139°54'0 0.1
2018-Jan-20 09:58N 35°35' E 139°54'0 0.0
2018-Jan-20 09:28N 35°35' E 139°54'0 0.1
2018-Jan-20 08:59N 35°35' E 139°54'2 3.5
2018-Jan-20 08:31N 35°34' E 139°54'713.3
2018-Jan-20 08:00N 35°28' E 139°51'713.4
2018-Jan-20 07:31N 35°22' E 139°45'611.3
2018-Jan-20 07:00N 35°17' E 139°46'611.7
2018-Jan-20 06:30N 35°11' E 139°46'714.1
2018-Jan-20 06:00N 35°05' E 139°42'714.2
2018-Jan-20 05:29N 34°60' E 139°36'715.1
2018-Jan-20 05:00N 34°56' E 139°28'815.3
2018-Jan-20 04:29N 34°51' E 139°21'715.4
2018-Jan-20 04:00N 34°46' E 139°14'815.5
2018-Jan-20 03:30N 34°41' E 139°07'714.5
2018-Jan-20 03:00N 34°37' E 138°59'714.0
2018-Jan-20 02:30N 34°33' E 138°52'713.1
2018-Jan-20 02:00N 34°32' E 138°44'713.3
2018-Jan-20 01:30N 34°30' E 138°36'914.5
2018-Jan-20 00:52N 34°29' E 138°26'514.4
2018-Jan-20 00:30N 34°29' E 138°19'714.7
2018-Jan-19 23:59N 34°28' E 138°10'714.4
2018-Jan-19 23:30N 34°27' E 138°02'6513.7
2018-Jan-19 18:46N 34°03' E 136°48'8711.6
2018-Jan-19 11:15N 33°46' E 135°05'614.7
2018-Jan-19 10:53N 33°51' E 135°01'513.9
2018-Jan-19 10:31N 33°55' E 134°59'714.8
2018-Jan-19 10:01N 34°03' E 134°58'714.8
2018-Jan-19 09:30N 34°10' E 134°58'815.4
2018-Jan-19 09:00N 34°18' E 134°58'714.5
2018-Jan-19 08:30N 34°25' E 135°00'715.0
2018-Jan-19 08:00N 34°32' E 135°02'510.9
2018-Jan-19 07:30N 34°37' E 134°58'815.1
2018-Jan-19 07:00N 34°39' E 134°50'510.7
2018-Jan-19 06:30N 34°44' E 134°47'0 0.0
2018-Jan-19 01:48N 34°44' E 134°47'2 5.8
2018-Jan-19 01:30N 34°43' E 134°47'1 1.2
2018-Jan-19 00:58N 34°42' E 134°47'0 0.0
2018-Jan-19 00:25N 34°42' E 134°47'0 0.0
2018-Jan-18 23:55N 34°42' E 134°47'0 0.0
2018-Jan-18 23:25N 34°42' E 134°47'0 0.0
2018-Jan-18 22:55N 34°42' E 134°47'0 0.0
2018-Jan-18 22:22N 34°42' E 134°47'0 0.0
2018-Jan-18 21:58N 34°42' E 134°47'0 0.0
2018-Jan-18 21:28N 34°42' E 134°47'0 0.1
2018-Jan-18 20:58N 34°42' E 134°47'0 0.1
2018-Jan-18 20:28N 34°42' E 134°47'0 0.0
2018-Jan-18 19:58N 34°42' E 134°47'0 0.0
2018-Jan-18 19:28N 34°42' E 134°47'0 0.0
2018-Jan-18 18:58N 34°42' E 134°47'0 0.0
2018-Jan-18 18:25N 34°42' E 134°47'0 0.0
2018-Jan-18 17:55N 34°42' E 134°47'0 0.0
2018-Jan-18 17:28N 34°42' E 134°47'0 0.0
2018-Jan-18 16:58N 34°42' E 134°47'0 0.0
2018-Jan-18 16:25N 34°42' E 134°47'0 0.0
2018-Jan-18 15:58N 34°42' E 134°47'0 0.0
2018-Jan-18 15:28N 34°42' E 134°47'0 0.1
2018-Jan-18 14:58N 34°42' E 134°47'0 0.0
2018-Jan-18 14:25N 34°42' E 134°47'0 0.1
2018-Jan-18 13:58N 34°42' E 134°47'0 0.0
2018-Jan-18 13:25N 34°42' E 134°47'0 0.0
2018-Jan-18 12:55N 34°42' E 134°47'0 0.0
2018-Jan-18 12:25N 34°42' E 134°47'0 0.0
2018-Jan-18 11:55N 34°42' E 134°47'0 0.0
2018-Jan-18 11:28N 34°42' E 134°47'0 0.1
2018-Jan-18 10:58N 34°42' E 134°47'0 0.1
2018-Jan-18 10:28N 34°42' E 134°47'0 0.0
2018-Jan-18 09:58N 34°42' E 134°47'0 0.0
2018-Jan-18 09:28N 34°42' E 134°47'0 0.1
2018-Jan-18 08:55N 34°42' E 134°47'4 8.6
2018-Jan-18 08:30N 34°39' E 134°50'612.3
2018-Jan-18 08:00N 34°38' E 134°57'611.3
2018-Jan-18 07:30N 34°36' E 135°04'612.9
2018-Jan-18 07:00N 34°35' E 135°11'713.5
2018-Jan-18 06:30N 34°34' E 135°19'510.4
2018-Jan-18 06:00N 34°33' E 135°25'0 0.2
2018-Jan-18 05:30N 34°33' E 135°25'0 0.0
2018-Jan-18 05:00N 34°33' E 135°25'0 0.0
2018-Jan-18 04:30N 34°33' E 135°25'0 0.0
2018-Jan-18 03:56N 34°33' E 135°25'0 0.0
2018-Jan-18 03:30N 34°33' E 135°25'0 0.0
2018-Jan-18 03:00N 34°33' E 135°25'0 0.0
2018-Jan-18 02:30N 34°33' E 135°25'0 0.0
2018-Jan-18 02:00N 34°33' E 135°25'0 0.0
2018-Jan-18 01:30N 34°33' E 135°25'0 0.0
2018-Jan-18 01:00N 34°33' E 135°25'0 0.0
2018-Jan-18 00:00N 34°33' E 135°25'0 0.0
2018-Jan-17 23:57N 34°33' E 135°25'  
2018-Jan-12 14:57N 34°40' E 135°11'0 0.0
2018-Jan-12 14:30N 34°40' E 135°11'0 0.0
2018-Jan-12 14:00N 34°40' E 135°11'0 0.0
2018-Jan-12 13:30N 34°40' E 135°11'0 0.0
2018-Jan-12 13:00N 34°40' E 135°11'0 0.0
2018-Jan-12 12:30N 34°40' E 135°11'0 0.0
2018-Jan-12 11:57N 34°40' E 135°11'0 0.0
2018-Jan-12 11:30N 34°40' E 135°11'0 0.0
2018-Jan-12 11:00N 34°40' E 135°11'0 0.0
2018-Jan-12 10:30N 34°40' E 135°11'0 0.0
2018-Jan-12 10:00N 34°40' E 135°11'0 0.0
2018-Jan-12 09:30N 34°40' E 135°11'0 0.0
2018-Jan-12 09:00N 34°40' E 135°11'0 0.0
2018-Jan-12 08:30N 34°40' E 135°11'0 0.0
2018-Jan-12 08:00N 34°40' E 135°11'0 0.0
2018-Jan-12 07:31N 34°40' E 135°11'1 2.1
2018-Jan-12 07:01N 34°39' E 135°11'713.2
2018-Jan-12 06:31N 34°35' E 135°05'713.5
2018-Jan-12 06:01N 34°36' E 134°57'714.6
2018-Jan-12 05:31N 34°40' E 134°49'5 0.8
2018-Jan-11 23:05N 34°44' E 134°47'0 4.7
2018-Jan-11 23:00N 34°44' E 134°47'2 3.2
2018-Jan-11 22:23N 34°42' E 134°47'0 0.0
2018-Jan-11 21:59N 34°42' E 134°47'0 0.0
2018-Jan-11 21:28N 34°42' E 134°47'0 0.0
2018-Jan-11 21:00N 34°42' E 134°47'0 0.0
2018-Jan-11 20:30N 34°42' E 134°47'0 0.0
2018-Jan-11 20:00N 34°42' E 134°47'0 0.0
2018-Jan-11 19:30N 34°42' E 134°47'0 0.0
2018-Jan-11 19:00N 34°42' E 134°47'0 0.0
2018-Jan-11 18:30N 34°42' E 134°47'0 0.1
2018-Jan-11 18:00N 34°42' E 134°47'0 0.0
2018-Jan-11 17:30N 34°42' E 134°47'0 0.0
2018-Jan-11 17:00N 34°42' E 134°47'0 0.0
2018-Jan-11 16:30N 34°42' E 134°47'  
Track history (hours):
 
Tides and Currents Weather Stations Pressure Air Temp Water Temp Dewpoint Dewpoint Depression Visibility Wind Speed Wind Dir Waves Ship Positions

Star Phenix

Last reported at 2018-Jan-21 16:12 UTC. Time now 2018-Jan-23 19:41 UTC.
Position N 34°60' E 140°12'.

Length 96 m; draft 5.6 m.

Type: Tanker. MMSI: 431100206.

Date/timePositionNaut miles runAvg speedWind from/ knotsBaromVisibWave heightAir tempDewpointWater temp
2018-Jan-21 16:12N 34°60' E 140°12'313.4
2018-Jan-21 15:57N 34°58' E 140°09'613.1
2018-Jan-21 15:30N 34°55' E 140°02'1212.1
2018-Jan-21 14:32N 34°52' E 139°49'113.0
2018-Jan-21 14:29N 34°53' E 139°48'714.4
2018-Jan-21 14:00N 34°58' E 139°43'714.0
2018-Jan-21 13:30N 35°05' E 139°44'714.4
2018-Jan-21 13:01N 35°12' E 139°46'612.3
2018-Jan-21 12:31N 35°18' E 139°44'713.1
2018-Jan-21 12:00N 35°25' E 139°43'714.2
2018-Jan-21 11:30N 35°29' E 139°50'713.7
2018-Jan-21 11:00N 35°32' E 139°58'4 1.2
2018-Jan-21 07:23N 35°32' E 140°03'0 0.0
2018-Jan-21 06:53N 35°32' E 140°03'0 0.0
2018-Jan-21 04:05N 35°32' E 140°03'0 0.0
2018-Jan-21 03:59N 35°32' E 140°03'0 0.7
2018-Jan-21 03:31N 35°32' E 140°03'3 5.3
2018-Jan-21 03:01N 35°33' E 140°00'5 2.3
2018-Jan-21 00:46N 35°35' E 139°54'0 0.0
2018-Jan-21 00:22N 35°35' E 139°54'0 0.0
2018-Jan-20 23:43N 35°35' E 139°54'0 0.0
2018-Jan-20 22:28N 35°35' E 139°54'0 0.0
2018-Jan-20 21:49N 35°35' E 139°54'0 0.0
2018-Jan-20 20:13N 35°35' E 139°54'0 0.0
2018-Jan-20 19:19N 35°35' E 139°54'0 0.0
2018-Jan-20 17:13N 35°35' E 139°54'0 0.0
2018-Jan-20 16:52N 35°35' E 139°54'0 0.0
2018-Jan-20 16:28N 35°35' E 139°54'0 0.0
2018-Jan-20 15:58N 35°35' E 139°54'0 0.0
2018-Jan-20 15:28N 35°35' E 139°54'0 0.0
2018-Jan-20 14:52N 35°35' E 139°54'0 0.0
2018-Jan-20 14:28N 35°35' E 139°54'0 0.1
2018-Jan-20 13:46N 35°35' E 139°54'0 0.2
2018-Jan-20 13:28N 35°35' E 139°54'0 0.0
2018-Jan-20 12:04N 35°35' E 139°54'0 0.0
2018-Jan-20 11:58N 35°35' E 139°54'0 0.0
2018-Jan-20 11:28N 35°35' E 139°54'0 0.0
2018-Jan-20 10:52N 35°35' E 139°54'0 0.0
2018-Jan-20 10:28N 35°35' E 139°54'0 0.1
2018-Jan-20 09:58N 35°35' E 139°54'0 0.0
2018-Jan-20 09:28N 35°35' E 139°54'0 0.1
2018-Jan-20 08:59N 35°35' E 139°54'2 3.5
2018-Jan-20 08:31N 35°34' E 139°54'713.3
2018-Jan-20 08:00N 35°28' E 139°51'713.4
2018-Jan-20 07:31N 35°22' E 139°45'611.3
2018-Jan-20 07:00N 35°17' E 139°46'611.7
2018-Jan-20 06:30N 35°11' E 139°46'714.1
2018-Jan-20 06:00N 35°05' E 139°42'714.2
2018-Jan-20 05:29N 34°60' E 139°36'715.1
2018-Jan-20 05:00N 34°56' E 139°28'815.3
2018-Jan-20 04:29N 34°51' E 139°21'715.4
2018-Jan-20 04:00N 34°46' E 139°14'815.5
2018-Jan-20 03:30N 34°41' E 139°07'714.5
2018-Jan-20 03:00N 34°37' E 138°59'714.0
2018-Jan-20 02:30N 34°33' E 138°52'713.1
2018-Jan-20 02:00N 34°32' E 138°44'713.3
2018-Jan-20 01:30N 34°30' E 138°36'914.5
2018-Jan-20 00:52N 34°29' E 138°26'514.4
2018-Jan-20 00:30N 34°29' E 138°19'714.7
2018-Jan-19 23:59N 34°28' E 138°10'714.4
2018-Jan-19 23:30N 34°27' E 138°02'6513.7
2018-Jan-19 18:46N 34°03' E 136°48'8711.6
2018-Jan-19 11:15N 33°46' E 135°05'614.7
2018-Jan-19 10:53N 33°51' E 135°01'513.9
2018-Jan-19 10:31N 33°55' E 134°59'714.8
2018-Jan-19 10:01N 34°03' E 134°58'714.8
2018-Jan-19 09:30N 34°10' E 134°58'815.4
2018-Jan-19 09:00N 34°18' E 134°58'714.5
2018-Jan-19 08:30N 34°25' E 135°00'715.0
2018-Jan-19 08:00N 34°32' E 135°02'510.9
2018-Jan-19 07:30N 34°37' E 134°58'815.1
2018-Jan-19 07:00N 34°39' E 134°50'510.7
2018-Jan-19 06:30N 34°44' E 134°47'0 0.0
2018-Jan-19 01:48N 34°44' E 134°47'2 5.8
2018-Jan-19 01:30N 34°43' E 134°47'1 1.2
2018-Jan-19 00:58N 34°42' E 134°47'0 0.0
2018-Jan-19 00:25N 34°42' E 134°47'0 0.0
2018-Jan-18 23:55N 34°42' E 134°47'0 0.0
2018-Jan-18 23:25N 34°42' E 134°47'0 0.0
2018-Jan-18 22:55N 34°42' E 134°47'0 0.0
2018-Jan-18 22:22N 34°42' E 134°47'0 0.0
2018-Jan-18 21:58N 34°42' E 134°47'0 0.0
2018-Jan-18 21:28N 34°42' E 134°47'0 0.1
2018-Jan-18 20:58N 34°42' E 134°47'0 0.1
2018-Jan-18 20:28N 34°42' E 134°47'0 0.0
2018-Jan-18 19:58N 34°42' E 134°47'0 0.0
2018-Jan-18 19:28N 34°42' E 134°47'0 0.0
2018-Jan-18 18:58N 34°42' E 134°47'0 0.0
2018-Jan-18 18:25N 34°42' E 134°47'0 0.0
2018-Jan-18 17:55N 34°42' E 134°47'0 0.0
2018-Jan-18 17:28N 34°42' E 134°47'0 0.0
2018-Jan-18 16:58N 34°42' E 134°47'0 0.0
2018-Jan-18 16:25N 34°42' E 134°47'0 0.0
2018-Jan-18 15:58N 34°42' E 134°47'0 0.0
2018-Jan-18 15:28N 34°42' E 134°47'0 0.1
2018-Jan-18 14:58N 34°42' E 134°47'0 0.0
2018-Jan-18 14:25N 34°42' E 134°47'0 0.1
2018-Jan-18 13:58N 34°42' E 134°47'0 0.0
2018-Jan-18 13:25N 34°42' E 134°47'0 0.0
2018-Jan-18 12:55N 34°42' E 134°47'0 0.0
2018-Jan-18 12:25N 34°42' E 134°47'0 0.0
2018-Jan-18 11:55N 34°42' E 134°47'0 0.0
2018-Jan-18 11:28N 34°42' E 134°47'0 0.1
2018-Jan-18 10:58N 34°42' E 134°47'0 0.1
2018-Jan-18 10:28N 34°42' E 134°47'0 0.0
2018-Jan-18 09:58N 34°42' E 134°47'0 0.0
2018-Jan-18 09:28N 34°42' E 134°47'0 0.1
2018-Jan-18 08:55N 34°42' E 134°47'4 8.6
2018-Jan-18 08:30N 34°39' E 134°50'612.3
2018-Jan-18 08:00N 34°38' E 134°57'611.3
2018-Jan-18 07:30N 34°36' E 135°04'612.9
2018-Jan-18 07:00N 34°35' E 135°11'713.5
2018-Jan-18 06:30N 34°34' E 135°19'510.4
2018-Jan-18 06:00N 34°33' E 135°25'0 0.2
2018-Jan-18 05:30N 34°33' E 135°25'0 0.0
2018-Jan-18 05:00N 34°33' E 135°25'0 0.0
2018-Jan-18 04:30N 34°33' E 135°25'0 0.0
2018-Jan-18 03:56N 34°33' E 135°25'0 0.0
2018-Jan-18 03:30N 34°33' E 135°25'0 0.0
2018-Jan-18 03:00N 34°33' E 135°25'0 0.0
2018-Jan-18 02:30N 34°33' E 135°25'0 0.0
2018-Jan-18 02:00N 34°33' E 135°25'0 0.0
2018-Jan-18 01:30N 34°33' E 135°25'0 0.0
2018-Jan-18 01:00N 34°33' E 135°25'0 0.0
2018-Jan-18 00:00N 34°33' E 135°25'0 0.0
2018-Jan-17 23:57N 34°33' E 135°25'  
2018-Jan-12 14:57N 34°40' E 135°11'0 0.0
2018-Jan-12 14:30N 34°40' E 135°11'0 0.0
2018-Jan-12 14:00N 34°40' E 135°11'0 0.0
2018-Jan-12 13:30N 34°40' E 135°11'0 0.0
2018-Jan-12 13:00N 34°40' E 135°11'0 0.0
2018-Jan-12 12:30N 34°40' E 135°11'0 0.0
2018-Jan-12 11:57N 34°40' E 135°11'0 0.0
2018-Jan-12 11:30N 34°40' E 135°11'0 0.0
2018-Jan-12 11:00N 34°40' E 135°11'0 0.0
2018-Jan-12 10:30N 34°40' E 135°11'0 0.0
2018-Jan-12 10:00N 34°40' E 135°11'0 0.0
2018-Jan-12 09:30N 34°40' E 135°11'0 0.0
2018-Jan-12 09:00N 34°40' E 135°11'0 0.0
2018-Jan-12 08:30N 34°40' E 135°11'0 0.0
2018-Jan-12 08:00N 34°40' E 135°11'0 0.0
2018-Jan-12 07:31N 34°40' E 135°11'1 2.1
2018-Jan-12 07:01N 34°39' E 135°11'713.2
2018-Jan-12 06:31N 34°35' E 135°05'713.5
2018-Jan-12 06:01N 34°36' E 134°57'714.6
2018-Jan-12 05:31N 34°40' E 134°49'5 0.8
2018-Jan-11 23:05N 34°44' E 134°47'0 4.7
2018-Jan-11 23:00N 34°44' E 134°47'2 3.2
2018-Jan-11 22:23N 34°42' E 134°47'0 0.0
2018-Jan-11 21:59N 34°42' E 134°47'0 0.0
2018-Jan-11 21:28N 34°42' E 134°47'0 0.0
2018-Jan-11 21:00N 34°42' E 134°47'0 0.0
2018-Jan-11 20:30N 34°42' E 134°47'0 0.0
2018-Jan-11 20:00N 34°42' E 134°47'0 0.0
2018-Jan-11 19:30N 34°42' E 134°47'0 0.0
2018-Jan-11 19:00N 34°42' E 134°47'0 0.0
2018-Jan-11 18:30N 34°42' E 134°47'0 0.1
2018-Jan-11 18:00N 34°42' E 134°47'0 0.0
2018-Jan-11 17:30N 34°42' E 134°47'0 0.0
2018-Jan-11 17:00N 34°42' E 134°47'0 0.0
2018-Jan-11 16:30N 34°42' E 134°47'  

Dump ship's entire track history